Forside
METAR-TAF:

METAR-TAF

Lufthavne :

Trollhättan-Vänersborg, Sverige

Breddekreds: 58-19N, længdekreds: 012-21E, højde: 41 m

Aktuelle vejr

Denne rapport blev lavet for 22 minutter siden, kl. 10:20 UTC
Vind 6 kt fra nord
Temperatur 3°C
Fugtighed 93%
Tryk 1009 hPa
Sigt: 4100 m
let finregn,

METAR: ESGT 021020Z AUTO 36006KT 4100 -DZ OVC007/// 03/02 Q1009 REDZ

Tid: 11:42 (10:42 UTC)

Vejrudsigter

Denne rapport blev lavet for 20 timer og 12 minutter siden, kl. 14:30 UTC
Foreløbig gælder fra 01 på 15 UTC til 01 på 18 UTC
Vind 5 kt fra sydøst
Sigt 10 km eller mere
Brudte skyer i en højde af 1000 ft
Sandsynlighed 40%
fra 01 på 15 UTC til 01 på 18 UTC
Sigt: 3000 m
Brudte skyer i en højde af 400 ft
dis,

TAF: ESGT 011430Z 0115/0118 14005KT 9999 BKN010 PROB40 0115/0118 3000 BR BKN004

Vejrobservationer og prognoser fra mere end 4000 lufthavne (METAR og TAF).

De gule og røde prikker repræsenterer de meteorologiske stationer.

Flyt musen over at se navnet på stationen.

Så klik over at se vejr observationer og prognoser.

At skifte det kort: Klik på de grønne knapper med et sort kors for at zoome ind; på den grønne knap med en bindestreg for at zoome ud; eller på de grønne pile for tilstødende kort.


METAR-TAF: